createdAt,value
2019-05-23T00:01:42.881Z,17.98
2019-05-23T00:06:59.254Z,16.85
2019-05-23T00:09:28.104Z,17.90
2019-05-23T00:12:04.308Z,20.57
2019-05-23T00:14:40.370Z,16.77
2019-05-23T00:17:12.681Z,18.23
2019-05-23T00:19:42.280Z,15.43
2019-05-23T00:22:11.547Z,17.07
2019-05-23T00:24:42.491Z,13.85
2019-05-23T00:27:12.838Z,18.23
2019-05-23T00:29:43.191Z,16.57
2019-05-23T00:32:23.251Z,19.17
2019-05-23T00:34:53.395Z,14.65
2019-05-23T00:37:23.823Z,19.42
2019-05-23T00:39:53.219Z,19.05
2019-05-23T00:42:22.576Z,19.10
2019-05-23T00:44:52.135Z,17.27
2019-05-23T00:47:21.226Z,16.15
2019-05-23T00:49:50.381Z,19.45
2019-05-23T00:52:19.134Z,20.27
2019-05-23T00:54:48.322Z,19.77
2019-05-23T00:57:18.740Z,17.40
2019-05-23T00:59:49.094Z,23.07
2019-05-23T01:02:17.959Z,18.40
2019-05-23T01:04:47.614Z,22.87
2019-05-23T01:07:16.539Z,19.90
2019-05-23T01:09:46.525Z,16.37
2019-05-23T01:12:15.850Z,21.60
2019-05-23T01:14:44.370Z,17.80
2019-05-23T01:17:13.664Z,19.92
2019-05-23T01:19:43.125Z,18.73
2019-05-23T01:22:14.708Z,16.95
2019-05-23T01:24:47.442Z,18.62
2019-05-23T01:27:17.226Z,21.77
2019-05-23T01:29:50.006Z,19.30
2019-05-23T01:32:26.131Z,20.57
2019-05-23T01:34:55.513Z,24.07
2019-05-23T01:37:24.420Z,20.68
2019-05-23T01:39:53.490Z,21.30
2019-05-23T01:42:23.973Z,19.20
2019-05-23T01:44:55.269Z,19.87
2019-05-23T01:47:24.149Z,20.40
2019-05-23T01:49:53.204Z,25.90
2019-05-23T01:52:21.676Z,22.65
2019-05-23T01:54:50.746Z,21.87
2019-05-23T01:57:19.818Z,20.92
2019-05-23T02:00:06.133Z,21.48
2019-05-23T02:02:21.070Z,16.50
2019-05-23T02:04:50.806Z,19.30
2019-05-23T02:07:31.733Z,19.37
2019-05-23T02:10:00.185Z,21.05
2019-05-23T02:12:29.037Z,19.12
2019-05-23T02:14:57.478Z,21.42
2019-05-23T02:17:26.336Z,25.12
2019-05-23T02:19:55.346Z,26.77
2019-05-23T02:22:24.753Z,22.75
2019-05-23T02:24:53.919Z,22.42
2019-05-23T02:27:23.362Z,24.43
2019-05-23T02:29:51.983Z,18.65
2019-05-23T02:32:20.530Z,23.77
2019-05-23T02:34:49.096Z,24.43
2019-05-23T02:37:35.486Z,22.00
2019-05-23T02:40:25.392Z,24.35
2019-05-23T02:43:05.094Z,22.13
2019-05-23T02:45:44.971Z,22.22
2019-05-23T02:48:25.128Z,20.37
2019-05-23T02:50:58.268Z,20.75
2019-05-23T02:53:30.628Z,25.52
2019-05-23T02:56:02.375Z,21.95
2019-05-23T02:59:01.772Z,23.22
2019-05-23T03:01:46.821Z,23.20
2019-05-23T03:04:17.413Z,22.00
2019-05-23T03:06:46.105Z,21.60
2019-05-23T03:09:16.713Z,20.25
2019-05-23T03:11:48.977Z,19.32
2019-05-23T03:14:19.250Z,18.50
2019-05-23T03:16:52.418Z,19.30
2019-05-23T03:19:23.935Z,22.90
2019-05-23T03:21:54.450Z,21.68
2019-05-23T03:24:25.022Z,20.92
2019-05-23T03:27:02.630Z,23.52
2019-05-23T03:29:39.480Z,19.12
2019-05-23T03:32:12.948Z,18.35
2019-05-23T03:34:43.021Z,19.32
2019-05-23T03:37:11.619Z,23.90
2019-05-23T03:39:40.067Z,22.80
2019-05-23T03:42:09.586Z,21.60
2019-05-23T03:44:39.086Z,25.02
2019-05-23T03:47:09.941Z,22.10
2019-05-23T03:49:39.286Z,23.67
2019-05-23T03:52:10.331Z,19.80
2019-05-23T03:54:40.046Z,20.62
2019-05-23T03:57:08.966Z,24.15
2019-05-23T03:59:38.884Z,24.30
2019-05-23T04:02:09.073Z,19.98
2019-05-23T04:04:39.551Z,24.65
2019-05-23T04:07:08.246Z,22.58
2019-05-23T04:09:36.773Z,23.10
2019-05-23T04:12:05.971Z,26.02
2019-05-23T04:14:35.334Z,27.02
2019-05-23T04:17:04.417Z,27.93
2019-05-23T04:19:33.238Z,27.05
2019-05-23T04:22:01.763Z,21.95
2019-05-23T04:24:30.733Z,26.95
2019-05-23T04:26:59.297Z,26.68
2019-05-23T04:29:28.539Z,28.25
2019-05-23T04:32:07.656Z,27.15
2019-05-23T04:34:27.224Z,27.87
2019-05-23T04:36:55.754Z,26.62
2019-05-23T04:39:24.587Z,27.10
2019-05-23T04:41:53.179Z,31.65
2019-05-23T04:44:21.697Z,29.12
2019-05-23T04:46:50.413Z,26.57
2019-05-23T04:49:18.818Z,29.63
2019-05-23T04:51:47.781Z,28.35
2019-05-23T04:54:17.143Z,29.82
2019-05-23T04:56:46.736Z,30.65
2019-05-23T04:59:16.424Z,31.68
2019-05-23T05:01:46.441Z,28.12
2019-05-23T05:04:16.718Z,28.45
2019-05-23T05:06:48.219Z,32.80
2019-05-23T05:09:25.067Z,33.30
2019-05-23T05:11:54.185Z,29.25
2019-05-23T05:14:22.732Z,26.48
2019-05-23T05:16:51.939Z,33.75
2019-05-23T05:19:20.787Z,26.57
2019-05-23T05:21:50.540Z,26.77
2019-05-23T05:24:19.311Z,35.40
2019-05-23T05:26:50.686Z,28.32
2019-05-23T05:29:19.138Z,32.80
2019-05-23T05:31:47.589Z,30.85
2019-05-23T05:34:16.262Z,28.30
2019-05-23T05:36:44.840Z,39.65
2019-05-23T05:39:14.004Z,29.05
2019-05-23T05:41:43.339Z,28.38
2019-05-23T05:44:12.302Z,24.72
2019-05-23T05:46:42.566Z,23.42
2019-05-23T05:49:12.557Z,29.67
2019-05-23T05:51:41.309Z,23.18
2019-05-23T05:54:10.162Z,19.48
2019-05-23T05:56:38.604Z,22.27
2019-05-23T05:59:07.218Z,25.52
2019-05-23T06:01:36.565Z,19.80
2019-05-23T06:04:05.319Z,28.57
2019-05-23T06:06:37.911Z,28.60
2019-05-23T06:09:09.506Z,28.55
2019-05-23T06:11:38.003Z,27.17
2019-05-23T06:14:07.529Z,24.45
2019-05-23T06:16:36.141Z,22.58
2019-05-23T06:19:06.444Z,30.25
2019-05-23T06:21:35.154Z,21.35
2019-05-23T06:24:04.719Z,28.75
2019-05-23T06:26:33.605Z,17.07
2019-05-23T06:29:02.220Z,30.40
2019-05-23T06:31:32.032Z,20.25
2019-05-23T06:34:00.680Z,24.72
2019-05-23T06:36:29.654Z,24.40
2019-05-23T06:38:58.094Z,18.95
2019-05-23T06:41:26.852Z,18.02
2019-05-23T06:43:55.452Z,21.95
2019-05-23T06:46:24.265Z,21.82
2019-05-23T06:48:52.759Z,24.45
2019-05-23T06:51:22.535Z,25.62
2019-05-23T06:53:51.320Z,26.85
2019-05-23T06:56:19.767Z,18.62
2019-05-23T06:58:48.642Z,22.20
2019-05-23T07:01:17.148Z,23.32
2019-05-23T07:03:45.701Z,21.70
2019-05-23T07:06:17.173Z,19.27
2019-05-23T07:08:45.876Z,19.70
2019-05-23T07:11:15.830Z,19.95
2019-05-23T07:13:46.167Z,22.50
2019-05-23T07:16:14.604Z,27.48
2019-05-23T07:18:44.469Z,24.45
2019-05-23T07:21:13.554Z,17.73
2019-05-23T07:23:41.994Z,25.70
2019-05-23T07:26:11.144Z,17.42
2019-05-23T07:28:39.677Z,20.10
2019-05-23T07:31:09.000Z,21.93
2019-05-23T07:33:37.812Z,20.40
2019-05-23T07:36:06.325Z,21.42
2019-05-23T07:38:34.721Z,21.10
2019-05-23T07:41:03.860Z,19.42
2019-05-23T07:43:32.305Z,26.45
2019-05-23T07:46:01.513Z,23.27
2019-05-23T07:48:31.366Z,17.40
2019-05-23T07:50:59.878Z,16.55
2019-05-23T07:53:43.981Z,19.60
2019-05-23T07:56:14.311Z,17.82
2019-05-23T07:58:42.798Z,20.20
2019-05-23T08:01:18.761Z,14.68
2019-05-23T08:03:49.970Z,13.78
2019-05-23T08:06:18.413Z,13.08
2019-05-23T08:08:47.425Z,10.58
2019-05-23T08:11:15.882Z,14.05
2019-05-23T08:13:44.320Z,12.70
2019-05-23T08:16:12.935Z,12.10
2019-05-23T08:18:42.428Z,10.65
2019-05-23T08:21:10.961Z,11.30
2019-05-23T08:23:39.628Z,11.85
2019-05-23T08:26:08.080Z,13.05
2019-05-23T08:28:36.874Z,12.18
2019-05-23T08:31:06.745Z,15.60
2019-05-23T08:33:35.880Z,15.75
2019-05-23T08:36:05.352Z,18.15
2019-05-23T08:38:33.953Z,17.98
2019-05-23T08:41:02.449Z,22.22
2019-05-23T08:43:31.037Z,25.27
2019-05-23T08:45:59.675Z,21.60
2019-05-23T08:48:28.745Z,23.92
2019-05-23T08:50:57.212Z,23.55
2019-05-23T08:53:26.086Z,23.83
2019-05-23T08:55:55.232Z,23.00
2019-05-23T08:58:23.824Z,24.05
2019-05-23T09:00:52.247Z,22.25
2019-05-23T09:03:21.402Z,24.72
2019-05-23T09:05:50.034Z,24.52
2019-05-23T09:08:19.611Z,19.98
2019-05-23T09:10:49.033Z,25.52
2019-05-23T09:13:17.613Z,20.05
2019-05-23T09:15:46.160Z,28.38
2019-05-23T09:18:14.809Z,19.42
2019-05-23T09:20:43.366Z,17.45
2019-05-23T09:23:12.084Z,19.90
2019-05-23T09:25:40.514Z,18.15
2019-05-23T09:28:09.721Z,22.62
2019-05-23T09:30:38.316Z,24.32
2019-05-23T09:33:07.185Z,22.45
2019-05-23T09:35:36.129Z,17.70
2019-05-23T09:38:05.138Z,17.85
2019-05-23T09:40:33.772Z,18.05
2019-05-23T09:43:02.252Z,18.50
2019-05-23T09:45:30.682Z,18.50
2019-05-23T09:47:59.297Z,15.40
2019-05-23T09:50:27.856Z,21.65
2019-05-23T09:52:57.519Z,22.20
2019-05-23T09:55:26.498Z,13.98
2019-05-23T09:57:54.927Z,13.28
2019-05-23T10:00:25.352Z,15.00
2019-05-23T10:02:54.193Z,11.70
2019-05-23T10:05:40.638Z,11.48
2019-05-23T10:07:52.984Z,13.30
2019-05-23T10:10:23.500Z,9.73
2019-05-23T10:12:51.966Z,10.60
2019-05-23T10:15:25.203Z,11.20
2019-05-23T10:18:00.569Z,10.63
2019-05-23T10:20:30.082Z,8.05
2019-05-23T10:22:58.540Z,8.05
2019-05-23T10:25:26.962Z,10.30
2019-05-23T10:27:55.936Z,10.60
2019-05-23T10:30:25.056Z,6.08
2019-05-23T10:32:53.531Z,9.35
2019-05-23T10:35:22.597Z,8.75
2019-05-23T10:37:51.285Z,7.80
2019-05-23T10:40:20.110Z,14.13
2019-05-23T10:42:48.768Z,5.90
2019-05-23T10:45:18.735Z,9.80
2019-05-23T10:47:47.176Z,5.90
2019-05-23T10:50:16.111Z,7.62
2019-05-23T10:52:44.553Z,11.57
2019-05-23T10:55:13.146Z,6.03
2019-05-23T10:57:41.577Z,5.00
2019-05-23T11:00:13.696Z,6.62
2019-05-23T11:02:43.126Z,4.67
2019-05-23T11:05:14.091Z,5.15
2019-05-23T11:07:43.675Z,5.33
2019-05-23T11:10:17.155Z,6.22
2019-05-23T11:12:45.664Z,3.43
2019-05-23T11:15:14.263Z,5.60
2019-05-23T11:17:43.061Z,5.22
2019-05-23T11:20:13.306Z,5.50
2019-05-23T11:22:42.450Z,4.80
2019-05-23T11:25:13.077Z,5.70
2019-05-23T11:27:41.682Z,7.85
2019-05-23T11:30:12.731Z,6.35
2019-05-23T11:32:41.261Z,6.53
2019-05-23T11:35:09.943Z,4.78
2019-05-23T11:37:41.746Z,8.40
2019-05-23T11:40:09.002Z,9.68
2019-05-23T11:42:37.496Z,9.03
2019-05-23T11:45:07.062Z,5.72
2019-05-23T11:47:35.936Z,4.35
2019-05-23T11:50:09.442Z,8.63
2019-05-23T11:52:39.357Z,5.50
2019-05-23T11:55:08.306Z,5.87
2019-05-23T11:57:38.427Z,2.17
2019-05-23T12:00:10.637Z,3.75
2019-05-23T12:02:41.181Z,5.37
2019-05-23T12:05:11.589Z,3.98
2019-05-23T12:07:40.093Z,3.35
2019-05-23T12:10:09.249Z,8.78
2019-05-23T12:12:37.751Z,4.90
2019-05-23T12:15:11.482Z,5.17
2019-05-23T12:17:40.301Z,4.00
2019-05-23T12:20:09.165Z,6.08
2019-05-23T12:22:38.199Z,6.60
2019-05-23T12:25:20.966Z,7.67
2019-05-23T12:27:38.460Z,4.28
2019-05-23T12:30:09.364Z,6.67
2019-05-23T12:32:37.809Z,7.75
2019-05-23T12:35:11.245Z,6.83
2019-05-23T12:37:37.374Z,3.77
2019-05-23T12:40:09.178Z,2.58
2019-05-23T12:42:37.655Z,3.60
2019-05-23T12:45:08.491Z,4.15
2019-05-23T12:47:55.382Z,7.67
2019-05-23T12:50:31.417Z,3.60
2019-05-23T12:53:09.065Z,6.83
2019-05-23T12:55:37.654Z,6.83
2019-05-23T12:58:06.329Z,5.28
2019-05-23T13:00:42.723Z,9.08
2019-05-23T13:03:13.537Z,4.62
2019-05-23T13:05:42.167Z,4.55
2019-05-23T13:08:16.975Z,3.15
2019-05-23T13:10:45.481Z,6.15
2019-05-23T13:13:14.503Z,5.70
2019-05-23T13:15:43.879Z,4.85
2019-05-23T13:18:12.368Z,2.45
2019-05-23T13:20:41.983Z,7.00
2019-05-23T13:23:19.911Z,5.03
2019-05-23T13:25:40.884Z,4.20
2019-05-23T13:28:09.400Z,4.40
2019-05-23T13:30:37.916Z,5.37
2019-05-23T13:33:06.347Z,8.00
2019-05-23T13:35:35.087Z,4.97
2019-05-23T13:38:05.921Z,5.50
2019-05-23T13:40:34.995Z,5.20
2019-05-23T13:43:07.935Z,3.90
2019-05-23T13:45:35.271Z,7.17
2019-05-23T13:48:06.458Z,8.00
2019-05-23T13:50:35.185Z,5.17
2019-05-23T13:53:04.337Z,13.53
2019-05-23T13:55:32.841Z,3.83
2019-05-23T13:58:01.302Z,5.00
2019-05-23T14:00:30.495Z,7.87
2019-05-23T14:02:59.140Z,5.85
2019-05-23T14:05:27.943Z,10.72
2019-05-23T14:08:10.448Z,4.90
2019-05-23T14:10:27.185Z,4.55
2019-05-23T14:12:58.492Z,4.37
2019-05-23T14:15:31.756Z,5.05
2019-05-23T14:18:00.410Z,4.17
2019-05-23T14:20:29.067Z,4.08
2019-05-23T14:23:08.368Z,4.10
2019-05-23T14:25:38.090Z,5.72
2019-05-23T14:28:08.175Z,5.72
2019-05-23T14:30:38.351Z,7.08
2019-05-23T14:33:24.119Z,3.87
2019-05-23T14:35:57.034Z,6.67
2019-05-23T14:38:30.690Z,4.05
2019-05-23T14:40:58.133Z,7.67
2019-05-23T14:43:27.982Z,7.83
2019-05-23T14:46:02.576Z,2.67
2019-05-23T14:48:49.191Z,3.62
2019-05-23T14:51:19.259Z,2.35
2019-05-23T14:53:58.518Z,2.08
2019-05-23T14:56:28.881Z,2.70
2019-05-23T14:58:57.320Z,1.72
2019-05-23T15:01:27.691Z,4.42
2019-05-23T15:03:56.290Z,1.98
2019-05-23T15:06:25.117Z,1.42
2019-05-23T15:08:54.056Z,1.37
2019-05-23T15:11:22.736Z,2.70
2019-05-23T15:13:51.727Z,1.65
2019-05-23T15:16:20.473Z,1.82
2019-05-23T15:18:49.057Z,2.37
2019-05-23T15:21:17.539Z,1.95
2019-05-23T15:23:46.063Z,2.10
2019-05-23T15:26:23.018Z,4.30
2019-05-23T15:28:44.720Z,3.37
2019-05-23T15:31:16.672Z,2.17
2019-05-23T15:33:45.079Z,2.20
2019-05-23T15:36:13.612Z,1.92
2019-05-23T15:38:42.192Z,2.37
2019-05-23T15:41:10.716Z,5.60
2019-05-23T15:43:39.141Z,1.77
2019-05-23T15:46:07.599Z,6.33
2019-05-23T15:48:36.099Z,6.25
2019-05-23T15:51:05.232Z,6.28
2019-05-23T15:53:35.379Z,3.83
2019-05-23T15:56:28.105Z,2.55
2019-05-23T15:59:02.205Z,5.47
2019-05-23T16:01:48.921Z,7.83
2019-05-23T16:04:22.165Z,5.42
2019-05-23T16:06:51.446Z,4.10
2019-05-23T16:09:29.215Z,3.33
2019-05-23T16:11:51.185Z,4.83
2019-05-23T16:14:20.886Z,3.62
2019-05-23T16:16:49.331Z,4.90
2019-05-23T16:19:17.833Z,5.10
2019-05-23T16:21:46.460Z,3.42
2019-05-23T16:24:14.997Z,3.52
2019-05-23T16:26:43.853Z,7.87
2019-05-23T16:29:13.774Z,7.35
2019-05-23T16:31:42.605Z,3.98
2019-05-23T16:34:11.011Z,3.72
2019-05-23T16:36:39.517Z,3.10
2019-05-23T16:39:10.861Z,8.63
2019-05-23T16:41:39.375Z,3.40
2019-05-23T16:44:07.936Z,3.45
2019-05-23T16:46:36.398Z,8.45
2019-05-23T16:49:05.057Z,8.45
2019-05-23T16:51:33.550Z,5.10
2019-05-23T16:54:02.967Z,4.97
2019-05-23T16:56:35.928Z,5.53
2019-05-23T16:59:12.119Z,5.37
2019-05-23T17:01:54.839Z,4.28
2019-05-23T17:04:30.844Z,4.58
2019-05-23T17:07:17.282Z,7.37
2019-05-23T17:10:07.589Z,3.08
2019-05-23T17:12:29.696Z,3.47
2019-05-23T17:15:11.916Z,6.53
2019-05-23T17:18:03.040Z,4.50
2019-05-23T17:20:33.642Z,6.87
2019-05-23T17:23:06.435Z,6.37
2019-05-23T17:25:48.707Z,9.90
2019-05-23T17:28:33.541Z,5.35
2019-05-23T17:33:37.570Z,7.83
2019-05-23T17:36:06.125Z,6.55
2019-05-23T17:38:34.558Z,4.15
2019-05-23T17:41:03.645Z,6.58
2019-05-23T17:43:32.229Z,3.72
2019-05-23T17:46:00.673Z,5.37
2019-05-23T17:48:29.269Z,9.65
2019-05-23T17:50:57.719Z,6.60
2019-05-23T17:53:26.629Z,5.92
2019-05-23T17:55:55.716Z,4.67
2019-05-23T17:58:25.161Z,8.33
2019-05-23T18:00:56.198Z,5.37
2019-05-23T18:03:24.660Z,11.33
2019-05-23T18:05:53.190Z,7.53
2019-05-23T18:08:21.610Z,7.87
2019-05-23T18:10:50.036Z,5.70
2019-05-23T18:13:19.497Z,4.75
2019-05-23T18:15:48.519Z,6.35
2019-05-23T18:18:18.050Z,8.75
2019-05-23T18:20:46.524Z,7.72
2019-05-23T18:23:15.847Z,9.38
2019-05-23T18:25:44.434Z,5.33
2019-05-23T18:28:14.682Z,4.40
2019-05-23T18:30:45.452Z,6.15
2019-05-23T18:33:15.673Z,5.08
2019-05-23T18:35:44.207Z,4.35
2019-05-23T18:38:13.103Z,6.97
2019-05-23T18:40:41.873Z,9.75
2019-05-23T18:43:10.284Z,3.58
2019-05-23T18:45:41.118Z,4.72
2019-05-23T18:48:09.640Z,2.98
2019-05-23T18:50:38.527Z,4.15
2019-05-23T18:53:08.479Z,6.35
2019-05-23T18:55:38.147Z,4.00
2019-05-23T18:58:07.595Z,4.78
2019-05-23T19:00:47.906Z,6.50
2019-05-23T19:03:16.435Z,2.65
2019-05-23T19:05:52.000Z,6.60
2019-05-23T19:08:20.571Z,6.72
2019-05-23T19:10:49.159Z,3.47
2019-05-23T19:13:17.600Z,4.60
2019-05-23T19:15:46.112Z,3.50
2019-05-23T19:18:15.892Z,3.27
2019-05-23T19:20:44.319Z,3.95
2019-05-23T19:23:13.213Z,2.37
2019-05-23T19:25:43.540Z,3.35
2019-05-23T19:28:12.739Z,4.22
2019-05-23T19:30:42.332Z,4.45
2019-05-23T19:33:11.036Z,3.83
2019-05-23T19:35:39.838Z,3.55
2019-05-23T19:38:08.505Z,5.37
2019-05-23T19:40:37.145Z,2.65
2019-05-23T19:43:06.767Z,6.35
2019-05-23T19:45:36.486Z,6.60
2019-05-23T19:48:05.511Z,3.42
2019-05-23T19:50:34.082Z,5.12
2019-05-23T19:53:02.513Z,4.80
2019-05-23T19:55:31.777Z,4.42
2019-05-23T19:58:00.779Z,4.85
2019-05-23T20:00:31.512Z,4.03
2019-05-23T20:03:03.721Z,6.08
2019-05-23T20:05:32.010Z,4.05
2019-05-23T20:08:00.851Z,5.90
2019-05-23T20:10:30.187Z,8.25
2019-05-23T20:12:58.949Z,6.70
2019-05-23T20:15:28.078Z,7.45
2019-05-23T20:17:56.683Z,4.83
2019-05-23T20:20:25.942Z,3.75
2019-05-23T20:22:54.388Z,3.75
2019-05-23T20:25:24.617Z,4.53
2019-05-23T20:27:53.234Z,5.05
2019-05-23T20:30:44.302Z,4.72
2019-05-23T20:33:12.869Z,2.92
2019-05-23T20:35:44.671Z,6.53
2019-05-23T20:38:13.344Z,6.25
2019-05-23T20:40:41.913Z,4.30
2019-05-23T20:43:10.587Z,4.60
2019-05-23T20:45:39.419Z,3.90
2019-05-23T20:48:08.545Z,5.97
2019-05-23T20:50:37.075Z,6.80
2019-05-23T20:53:05.780Z,8.23
2019-05-23T20:55:34.696Z,7.00
2019-05-23T20:58:04.191Z,3.80
2019-05-23T21:00:34.352Z,6.55
2019-05-23T21:03:03.806Z,3.80
2019-05-23T21:05:32.566Z,6.85
2019-05-23T21:08:01.084Z,6.30
2019-05-23T21:10:47.256Z,4.90
2019-05-23T21:13:15.902Z,2.72
2019-05-23T21:15:51.176Z,2.87
2019-05-23T21:18:17.098Z,2.20
2019-05-23T21:20:45.589Z,4.17
2019-05-23T21:23:14.248Z,6.85
2019-05-23T21:25:44.363Z,2.75
2019-05-23T21:28:12.855Z,2.50
2019-05-23T21:30:41.511Z,5.00
2019-05-23T21:33:10.120Z,4.55
2019-05-23T21:35:38.574Z,5.05
2019-05-23T21:38:07.039Z,3.20
2019-05-23T21:40:38.617Z,6.28
2019-05-23T21:43:07.219Z,4.28
2019-05-23T21:45:35.636Z,6.45
2019-05-23T21:48:04.463Z,6.25
2019-05-23T21:50:33.206Z,3.72
2019-05-23T21:53:02.010Z,5.85
2019-05-23T21:55:43.962Z,3.62
2019-05-23T21:58:14.146Z,3.47
2019-05-23T22:01:07.913Z,6.47
2019-05-23T22:03:57.678Z,4.25
2019-05-23T22:06:30.527Z,7.75
2019-05-23T22:08:59.415Z,6.37
2019-05-23T22:11:27.831Z,5.97
2019-05-23T22:13:56.460Z,4.65
2019-05-23T22:16:25.060Z,7.60
2019-05-23T22:18:53.469Z,3.70
2019-05-23T22:21:22.238Z,4.25
2019-05-23T22:23:50.671Z,5.53
2019-05-23T22:26:19.139Z,4.83
2019-05-23T22:28:47.582Z,10.18
2019-05-23T22:31:16.163Z,5.87
2019-05-23T22:33:52.172Z,3.50
2019-05-23T22:36:22.411Z,4.22
2019-05-23T22:38:50.923Z,4.17
2019-05-23T22:41:19.444Z,3.85
2019-05-23T22:43:51.325Z,3.50
2019-05-23T22:46:21.450Z,4.12
2019-05-23T22:48:49.884Z,6.62
2019-05-23T22:51:18.355Z,5.50
2019-05-23T22:53:46.781Z,3.10
2019-05-23T22:56:15.216Z,4.12
2019-05-23T22:58:43.914Z,6.80
2019-05-23T23:01:12.365Z,6.53
2019-05-23T23:03:40.817Z,5.35
2019-05-23T23:06:09.731Z,5.00
2019-05-23T23:08:38.419Z,3.92
2019-05-23T23:11:06.819Z,6.78
2019-05-23T23:13:38.825Z,5.20
2019-05-23T23:16:05.744Z,3.80
2019-05-23T23:18:34.188Z,3.62
2019-05-23T23:21:02.613Z,3.80
2019-05-23T23:23:31.078Z,10.25
2019-05-23T23:25:59.507Z,3.60
2019-05-23T23:28:28.117Z,4.58
2019-05-23T23:30:56.606Z,4.53
2019-05-23T23:33:25.081Z,5.03
2019-05-23T23:35:53.482Z,6.80
2019-05-23T23:38:21.929Z,5.28
2019-05-23T23:40:50.352Z,5.20
2019-05-23T23:43:18.825Z,6.95
2019-05-23T23:46:05.362Z,6.28
2019-05-23T23:48:51.271Z,6.12
2019-05-23T23:51:37.428Z,7.65
2019-05-23T23:54:23.564Z,4.60
2019-05-23T23:57:10.002Z,5.55
2019-05-23T23:59:37.714Z,5.10
